Weather observations for the past three days for
St. James Municipal Airport
Imperial (Metric)
Date Time (cdt) Wind (mph) Vis. (mi.) Weather Sky Cond. Temperature (ºF) Relative Humidity Wind Chill (°F) Heat Index (°F) Pressure Precipitation (in)
Air Dwpt 6 hour altimeter (in) sea level (mb) 1 hr 3 hr 6 hr
Max. Min.
02 20:15 SW 8 10.00 Overcast SCT080 OVC090 62.6 33.8 34% 29.86 0.0
02 19:55 SW 7 10.00 Overcast FEW080 OVC090 62.6 33.8 34% 29.86 0.0
02 19:35 SW 8 G 16 10.00 Overcast FEW065 SCT075 OVC085 64.4 32 30% 29.87 0.0
02 19:15 W 13 10.00 Overcast SCT080 OVC090 64.4 30.2 28% 29.87 0.0
02 18:55 W 10 10.00 Overcast BKN100 OVC120 66.2 32 28% 29.87 0.0
02 18:35 SW 14 10.00 Mostly Cloudy BKN110 66.2 30.2 26% 29.87 0.0
02 18:15 SW 15 G 24 10.00 A Few Clouds FEW090 66.2 30.2 26% 29.88 0.0
02 17:55 W 17 10.00 A Few Clouds FEW090 68 30.2 24% 29.88 0.0
02 17:15 SW 14 G 22 10.00 Fair CLR 68 30.2 24% 29.9 0.0
02 16:55 W 16 G 22 10.00 Fair CLR 68 30.2 24% 29.9 0.0
02 16:35 SW 15 G 23 10.00 A Few Clouds FEW085 68 30.2 24% 29.91 0.0
02 16:15 SW 10 G 21 10.00 Fair CLR 68 32 26% 29.92 0.0
02 15:55 SW 16 10.00 Fair CLR 66.2 30.2 26% 29.93 0.0
02 15:35 SW 17 10.00 Fair CLR 66.2 30.2 26% 29.94 0.0
02 15:15 W 15 10.00 Fair CLR 66.2 30.2 26% 29.95 0.0
02 14:55 W 14 G 23 10.00 Fair CLR 66.2 30.2 26% 29.96 0.0
02 14:35 SW 13 G 20 10.00 Fair CLR 66.2 30.2 26% 29.97 0.0
02 14:15 W 15 10.00 Fair CLR 64.4 28.4 26% 29.99 0.0
02 13:55 W 10 10.00 Fair CLR 62.6 28.4 27% 29.99 0.0
02 13:35 W 9 G 20 10.00 Fair CLR 62.6 28.4 27% 30.01 0.0
02 13:15 SW 12 10.00 Fair CLR 62.6 28.4 27% 30.01 0.0
02 12:55 W 8 G 18 10.00 Fair CLR 60.8 26.6 27% 30.03 0.0
02 12:35 W 12 G 18 10.00 Fair CLR 60.8 28.4 29% 30.04 0.0
02 12:15 SW 12 G 18 10.00 Fair CLR 59 26.6 29% 30.05 0.0
02 11:55 W 10 G 20 10.00 Fair CLR 59 26.6 29% 30.06 0.0
02 11:35 SW 9 G 18 10.00 Fair CLR 57.2 26.6 31% 30.06 0.0
02 11:15 W 9 G 18 10.00 Fair CLR 57.2 26.6 31% 30.07 0.0
02 10:55 SW 13 10.00 Fair CLR 55.4 26.6 33% 30.08 0.0
02 10:35 W 10 G 17 10.00 Fair CLR 55.4 26.6 33% 30.08 0.0
02 10:15 W 12 G 18 10.00 Fair CLR 53.6 26.6 35% 30.08 0.0
02 09:55 SW 14 G 20 10.00 Fair CLR 53.6 28.4 38% 30.09 0.0
02 09:35 W 16 10.00 Fair CLR 51.8 28.4 41% 30.09 0.0
02 09:15 W 12 G 17 10.00 Fair CLR 50 30.2 47% 46 30.1 0.0
02 08:55 W 12 10.00 Fair CLR 50 28.4 43% 46 30.1 0.0
02 08:35 W 14 10.00 Fair CLR 46.4 30.2 53% 41 30.11 0.0
02 08:15 W 12 10.00 Fair CLR 44.6 30.2 57% 39 30.11 0.0
02 07:55 W 8 10.00 Fair CLR 42.8 30.2 61% 39 30.11 0.0
02 07:35 W 9 10.00 Fair CLR 39.2 30.2 70% 34 30.11 0.0
02 07:15 W 10 7.00 Fair CLR 37.4 30.2 75% 31 30.11 0.0
02 06:55 SW 7 10.00 Fair CLR 35.6 30.2 81% 31 30.1 0.0
02 06:35 W 7 10.00 Fair CLR 33.8 28.4 81% 28 30.1 0.0
02 06:15 W 9 10.00 Fair CLR 33.8 28.4 81% 27 30.11 0.0
02 05:55 W 9 10.00 Fair CLR 33.8 28.4 81% 27 30.1 0.0
02 05:35 W 8 10.00 Fair CLR 32 28.4 87% 25 30.11 0.0
02 05:15 W 7 10.00 Fair CLR 32 28.4 87% 26 30.11 0.0
02 04:55 SW 7 10.00 Fair CLR 33.8 28.4 81% 28 30.11 0.0
02 04:35 SW 6 10.00 Fair CLR 33.8 28.4 81% 29 30.1 0.0
02 04:15 SW 7 10.00 Fair CLR 33.8 28.4 81% 28 30.1 0.0
02 03:55 SW 7 10.00 Fair CLR 33.8 28.4 81% 28 30.1 0.0
02 03:35 W 6 10.00 Fair CLR 33.8 28.4 81% 29 30.1 0.0
02 03:15 W 7 10.00 Fair CLR 33.8 28.4 81% 28 30.1 0.0
02 02:55 W 8 10.00 Fair CLR 35.6 28.4 75% 30 30.1 0.0
02 02:35 SW 8 10.00 Fair CLR 35.6 28.4 75% 30 30.1 0.0
02 02:15 W 7 10.00 Fair CLR 35.6 28.4 75% 31 30.11 0.0
02 01:55 W 7 10.00 Fair CLR 35.6 28.4 75% 31 30.11 0.0
02 01:35 SW 6 10.00 Fair CLR 35.6 30.2 81% 31 30.11 0.0
02 01:15 SW 7 10.00 Fair CLR 35.6 30.2 81% 31 30.12 0.0
02 00:55 SW 6 10.00 Fair CLR 35.6 30.2 81% 31 30.11 0.0
02 00:35 SW 7 10.00 Fair CLR 35.6 30.2 81% 31 30.11 0.0
02 00:15 W 6 10.00 Fair CLR 35.6 30.2 81% 31 30.11 0.0
01 23:55 W 6 10.00 Fair CLR 37.4 30.2 75% 33 30.11 0.0
01 23:35 SW 5 10.00 Fair CLR 37.4 33.8 87% 34 30.11 0.0
01 23:15 SW 5 9.00 Fair CLR 39.2 32 75% 36 30.11 0.0
01 22:55 SW 5 8.00 Fair CLR 39.2 32 75% 36 30.11 0.0
01 22:35 SW 3 9.00 Fair CLR 41 30.2 66% 30.11 0.0
01 22:15 Calm 10.00 Fair CLR 41 30.2 66% 30.11 0.0
01 21:55 W 3 10.00 Fair CLR 42.8 28.4 57% 30.11 0.0
01 21:35 Calm 10.00 Fair CLR 42.8 28.4 57% 30.11 0.0
01 21:15 Calm 10.00 Fair CLR 42.8 28.4 57% 30.1 0.0
01 20:55 N 3 10.00 A Few Clouds FEW070 46.4 26.6 46% 30.1 0.0
01 20:35 N 6 10.00 Partly Cloudy SCT070 44.6 30.2 57% 42 30.09 0.0
01 20:15 N 7 10.00 Fair CLR 46.4 30.2 53% 43 30.09 0.0
01 19:55 N 8 10.00 A Few Clouds FEW070 48.2 28.4 46% 45 30.08 0.0
01 19:35 N 10 10.00 Mostly Cloudy BKN070 50 26.6 40% 46 30.08 0.0
01 19:15 Calm 10.00 Overcast OVC070 51.8 24.8 35% 30.08 0.0
01 18:55 N 12 10.00 Mostly Cloudy BKN065 51.8 24.8 35% 30.08 0.0
01 18:35 N 9 10.00 A Few Clouds FEW075 50 26.6 40% 47 30.08 0.0
01 18:15 N 8 10.00 Mostly Cloudy BKN070 50 24.8 37% 47 30.08 0.0
01 17:55 N 8 G 14 10.00 Mostly Cloudy BKN070 50 24.8 37% 47 30.08 0.0
01 17:35 N 10 10.00 Mostly Cloudy BKN070 51.8 24.8 35% 30.07 0.0
01 17:15 N 9 10.00 Mostly Cloudy BKN065 50 24.8 37% 47 30.08 0.0
01 16:55 N 10 10.00 Partly Cloudy SCT070 51.8 24.8 35% 30.07 0.0
01 16:35 N 12 10.00 Mostly Cloudy BKN065 BKN075 51.8 24.8 35% 30.08 0.0
01 16:15 N 10 G 20 10.00 Partly Cloudy SCT065 51.8 24.8 35% 30.07 0.0
01 15:55 N 12 G 17 10.00 A Few Clouds FEW065 51.8 24.8 35% 30.08 0.0
01 15:35 N 14 10.00 Mostly Cloudy SCT060 BKN070 51.8 26.6 38% 30.08 0.0
01 15:15 N 8 G 18 10.00 Mostly Cloudy BKN060 BKN070 51.8 26.6 38% 30.08 0.0
01 14:55 N 10 10.00 Mostly Cloudy BKN060 50 24.8 37% 46 30.09 0.0
01 14:35 NE 6 G 12 10.00 Mostly Cloudy BKN060 53.6 26.6 35% 30.08 0.0
01 14:15 N 14 10.00 Mostly Cloudy SCT055 BKN065 51.8 26.6 38% 30.08 0.0
01 13:55 N 9 G 18 10.00 Mostly Cloudy BKN055 BKN065 50 26.6 40% 47 30.08 0.0
01 13:35 N 9 G 15 10.00 Mostly Cloudy BKN060 51.8 26.6 38% 30.08 0.0
01 13:15 NE 9 10.00 Mostly Cloudy BKN055 50 26.6 40% 47 30.08 0.0
01 12:55 Vrbl 7 G 15 10.00 Partly Cloudy SCT055 50 24.8 37% 48 30.08 0.0
01 12:35 N 10 10.00 Mostly Cloudy SCT050 BKN055 50 26.6 40% 46 30.09 0.0
01 12:15 Vrbl 7 10.00 Mostly Cloudy SCT048 BKN055 48.2 26.6 43% 46 30.08 0.0
01 11:55 N 13 10.00 Partly Cloudy FEW045 SCT055 50 28.4 43% 46 30.08 0.0
01 11:35 N 7 G 14 10.00 A Few Clouds FEW040 48.2 30.2 50% 46 30.08 0.0
01 11:15 NE 12 10.00 Fair CLR 48.2 32 54% 44 30.08 0.0
01 10:55 NE 8 10.00 Fair CLR 46.4 32 57% 43 30.08 0.0
01 10:35 N 9 10.00 A Few Clouds FEW060 46.4 33.8 62% 42 30.08 0.0
01 10:15 NE 9 10.00 Fair CLR 44.6 32 61% 40 30.08 0.0
01 09:55 NE 10 10.00 Fair CLR 44.6 33.8 66% 40 30.08 0.0
01 09:35 N 10 10.00 Fair CLR 42.8 35.6 76% 38 30.08 0.0
01 09:15 N 10 10.00 Fair CLR 41 35.6 81% 35 30.08 0.0
01 08:55 N 12 10.00 Partly Cloudy SCT065 41 35.6 81% 35 30.07 0.0
01 08:35 N 13 10.00 Mostly Cloudy BKN065 39.2 35.6 87% 32 30.07 0.0
01 08:15 NW 13 10.00 Partly Cloudy SCT065 39.2 35.6 87% 32 30.07 0.0
01 07:55 NW 12 10.00 Partly Cloudy SCT065 39.2 35.6 87% 33 30.06 0.0
01 07:35 NW 10 10.00 Fair CLR 37.4 35.6 93% 31 30.05 0.0
01 07:15 NW 10 9.00 Fair CLR 35.6 35.6 100% 29 30.05 0.0
01 06:55 NW 10 7.00 Fair CLR 35.6 35.6 100% 29 30.04 0.0
01 06:35 NW 9 3.00 Fog/Mist CLR 33.8 33.8 100% 27 30.04 0.0
01 06:15 W 7 3.00 Fog/Mist CLR 33.8 33.8 100% 28 30.04 0.0
01 05:55 W 7 4.00 Fog/Mist CLR 33.8 33.8 100% 28 30.03 0.0
01 05:35 W 7 5.00 Fog/Mist CLR 33.8 33.8 100% 28 30.03 0.0
01 05:15 W 7 6.00 Fog/Mist CLR 35.6 35.6 100% 31 30.03 0.0
01 04:55 W 5 6.00 Fog/Mist CLR 35.6 35.6 100% 32 30.03 0.0
01 04:35 NW 6 7.00 Fair CLR 35.6 35.6 100% 31 30.03 0.0
01 04:15 NW 7 6.00 Fog/Mist CLR 35.6 35.6 100% 31 30.03 0.0
01 03:55 W 6 7.00 A Few Clouds FEW070 35.6 35.6 100% 31 30.03 0.0
01 03:35 NW 6 8.00 Overcast OVC070 37.4 37.4 100% 33 30.03 0.0
01 03:15 NW 7 9.00 Overcast BKN070 OVC075 39.2 37.4 93% 35 30.03 0.0
01 02:55 NW 8 10.00 Overcast BKN070 BKN075 OVC085 39.2 37.4 93% 34 30.03 0.0
01 02:35 NW 7 10.00 Overcast BKN075 OVC090 41 39.2 93% 37 30.03 0.0
01 02:15 NW 6 10.00 Overcast FEW065 BKN080 OVC090 41 39.2 93% 38 30.03 0.0
01 01:55 NW 6 10.00 Overcast FEW055 BKN065 OVC075 41 39.2 93% 38 30.03 0.0
01 01:35 W 5 10.00 Overcast BKN065 OVC075 41 39.2 93% 38 30.03 0.0
01 01:15 W 3 10.00 Overcast BKN070 OVC080 41 39.2 93% 30.04 0.0
01 00:55 NW 5 10.00 Overcast OVC075 41 39.2 93% 38 30.04 0.0
01 00:35 W 6 10.00 Overcast FEW045 SCT050 OVC075 41 39.2 93% 38 30.03 0.0
01 00:15 NW 6 10.00 Mostly Cloudy FEW044 SCT049 BKN055 41 39.2 93% 38 30.03 0.0
30 23:55 W 5 10.00 Overcast SCT041 BKN049 OVC060 41 39.2 93% 38 30.03 0.0
30 23:35 Calm 10.00 Overcast SCT042 BKN047 OVC100 41 39.2 93% 30.03 0.0
30 23:15 Calm 10.00 Overcast FEW080 OVC100 41 39.2 93% 30.03 0.0
30 22:55 Calm 10.00 Overcast FEW047 BKN080 OVC095 42.8 39.2 87% 30.03 0.0
30 22:35 E 3 10.00 Overcast BKN047 OVC055 42.8 39.2 87% 30.04 0.0
30 22:15 NE 6 10.00 Overcast OVC046 42.8 39.2 87% 40 30.04 0.0
30 21:55 NE 7 10.00 Overcast OVC045 42.8 39.2 87% 39 30.04 0.0
30 21:35 NE 8 10.00 Overcast FEW034 OVC045 44.6 39.2 81% 41 30.03 0.0
30 21:15 N 9 G 15 10.00 Overcast FEW023 BKN037 OVC047 44.6 39.2 81% 40 30.03 0.0
30 20:55 Vrbl 6 G 12 10.00 Light Rain FEW021 BKN036 OVC050 46.4 35.6 66% 44 30.02 0.0
30 20:35 S 3 10.00 Overcast BKN050 BKN060 OVC090 46.4 37.4 71% 30.01 0.0
30 20:15 E 3 10.00 Overcast FEW049 FEW080 OVC090 46.4 35.6 66% 30.01 0.0
30 19:55 E 3 10.00 Overcast FEW055 BKN075 OVC090 46.4 35.6 66% 30.01 0.0
30 19:35 Calm 10.00 Overcast FEW050 BKN075 OVC095 48.2 33.8 58% 30.01 0.0
30 19:15 Calm 10.00 Mostly Cloudy FEW070 BKN090 48.2 33.8 58% 30.01 0.0
30 18:55 N 6 10.00 Mostly Cloudy FEW060 BKN080 48.2 32 54% 46 30.02 0.0
30 18:35 N 9 G 15 10.00 Mostly Cloudy FEW043 SCT060 BKN075 48.2 33.8 58% 45 30.02 0.0
30 18:15 NW 14 10.00 Mostly Cloudy FEW042 SCT050 BKN055 48.2 32 54% 43 30.03 0.0
30 17:55 NW 21 G 33 10.00 Mostly Cloudy and Breezy BKN055 BKN075 50 28.4 43% 44 30.02 0.0
30 17:35 N 15 10.00 Mostly Cloudy FEW060 BKN080 51.8 28.4 41% 30.01 0.0
30 17:15 N 9 G 17 10.00 Mostly Cloudy SCT055 BKN065 BKN080 51.8 30.2 44% 30.01 0.0
30 16:55 N 15 10.00 Partly Cloudy SCT055 SCT065 SCT080 51.8 30.2 44% 30.02 0.0
30 16:35 N 12 G 21 10.00 Mostly Cloudy FEW055 FEW065 BKN080 50 30.2 47% 46 30.03 0.0
30 16:15 N 20 10.00 Mostly Cloudy BKN050 BKN080 51.8 30.2 44% 30.03 0.0
30 15:55 N 17 G 23 10.00 Mostly Cloudy SCT050 BKN060 BKN075 51.8 30.2 44% 30.04 0.0
30 15:35 N 17 G 25 10.00 Overcast BKN050 BKN060 OVC070 51.8 30.2 44% 30.05 0.0
30 15:15 N 15 G 25 10.00 Overcast FEW050 OVC070 51.8 30.2 44% 30.05 0.0
30 14:55 NW 17 G 23 10.00 Overcast FEW050 BKN065 OVC075 50 30.2 47% 45 30.05 0.0
30 14:35 N 23 G 30 10.00 Mostly Cloudy and Breezy SCT060 BKN070 50 30.2 47% 44 30.05 0.0
30 14:15 NW 17 G 25 10.00 Mostly Cloudy FEW048 SCT055 BKN070 50 30.2 47% 45 30.06 0.0
30 13:55 N 21 G 26 10.00 Overcast and Breezy FEW049 OVC060 48.2 30.2 50% 42 30.07 0.0
30 13:35 N 18 10.00 Overcast FEW049 OVC060 48.2 30.2 50% 42 30.07 0.0
30 13:15 N 18 G 26 10.00 Overcast BKN049 OVC060 48.2 30.2 50% 42 30.08 0.0
30 12:55 NW 15 G 23 10.00 Mostly Cloudy BKN049 BKN055 48.2 30.2 50% 43 30.08 0.0
30 12:35 N 17 G 26 10.00 Partly Cloudy SCT049 48.2 30.2 50% 42 30.08 0.0
30 12:15 N 15 G 28 10.00 A Few Clouds FEW047 48.2 28.4 46% 43 30.09 0.0
30 11:55 N 18 10.00 A Few Clouds FEW043 48.2 30.2 50% 42 30.09 0.0
30 11:35 N 18 10.00 A Few Clouds FEW043 48.2 30.2 50% 42 30.09 0.0
30 11:15 N 20 G 25 10.00 Fair CLR 46.4 30.2 53% 40 30.09 0.0
30 10:55 N 18 10.00 Fair CLR 46.4 28.4 50% 40 30.09 0.0
30 10:35 N 17 G 24 10.00 Fair CLR 44.6 28.4 53% 38 30.09 0.0
30 10:15 N 18 10.00 Fair CLR 44.6 28.4 53% 37 30.09 0.0
30 09:55 N 14 G 21 10.00 Fair CLR 42.8 28.4 57% 36 30.08 0.0
30 09:35 N 13 G 23 10.00 A Few Clouds FEW100 42.8 30.2 61% 37 30.09 0.0
30 09:15 N 15 10.00 Mostly Cloudy BKN095 41 30.2 66% 34 30.09 0.0
30 08:55 N 15 10.00 Mostly Cloudy BKN100 39.2 30.2 70% 31 30.08 0.0
30 08:35 N 16 G 23 10.00 A Few Clouds FEW110 39.2 30.2 70% 31 30.08 0.0
30 08:15 N 15 10.00 Mostly Cloudy BKN100 BKN120 39.2 30.2 70% 31 30.08 0.0
30 07:55 N 16 10.00 Overcast OVC095 39.2 30.2 70% 31 30.09 0.0
30 07:35 N 15 10.00 Overcast OVC110 39.2 32 75% 31 30.08 0.0
30 07:15 N 13 10.00 Mostly Cloudy FEW070 FEW095 BKN120 39.2 35.6 87% 32 30.07 0.0
30 06:55 NW 10 10.00 Overcast BKN070 OVC090 39.2 35.6 87% 33 30.07 0.0
30 06:35 NW 7 10.00 Overcast OVC070 39.2 35.6 87% 35 30.07 0.0
30 06:15 NW 8 10.00 Overcast FEW040 SCT055 OVC070 39.2 35.6 87% 34 30.06 0.0
30 05:55 NW 7 10.00 Overcast FEW035 BKN050 OVC065 39.2 35.6 87% 35 30.07 0.0
30 05:35 N 7 10.00 Light Rain FEW014 FEW019 OVC050 39.2 35.6 87% 35 30.07 0.0
30 05:15 N 8 10.00 Light Rain SCT016 BKN021 BKN049 39.2 33.8 81% 34 30.07 0.0
30 04:55 N 12 8.00 Light Rain FEW019 BKN023 OVC048 41 33.8 76% 35 30.07 0.0
30 04:35 N 12 10.00 Light Rain FEW018 SCT024 BKN037 41 33.8 76% 35 30.06 0.0
30 04:15 N 14 G 21 10.00 Overcast OVC060 41 32 70% 34 30.07 0.0
30 03:55 N 16 10.00 Overcast FEW025 FEW049 OVC060 42.8 32 66% 36 30.06 0.0
30 03:35 N 12 10.00 Overcast SCT024 BKN030 OVC075 42.8 33.8 71% 37 30.06 0.0
30 03:15 N 12 10.00 Overcast SCT060 SCT070 OVC075 42.8 33.8 71% 37 30.06 0.0
30 02:55 N 15 10.00 Overcast SCT025 BKN060 OVC075 42.8 32 66% 36 30.06 0.0
30 02:35 N 13 G 20 10.00 Overcast SCT027 BKN039 OVC055 42.8 32 66% 37 30.07 0.0
30 02:15 N 14 10.00 Overcast BKN055 BKN075 OVC090 44.6 33.8 66% 39 30.06 0.0
30 01:55 N 14 10.00 Mostly Cloudy FEW039 SCT047 BKN070 44.6 33.8 66% 39 30.06 0.0
30 01:35 N 12 10.00 Overcast FEW038 BKN047 OVC065 44.6 33.8 66% 39 30.06 0.0
30 01:15 N 8 10.00 Overcast SCT060 OVC070 42.8 37.4 81% 39 30.06 0.0
30 00:55 N 5 10.00 Overcast FEW060 OVC070 42.8 37.4 81% 41 30.05 0.0
30 00:35 NW 3 10.00 Overcast BKN070 OVC085 44.6 37.4 76% 30.06 0.0
30 00:15 N 3 10.00 Overcast SCT080 OVC090 44.6 37.4 76% 30.05 0.0
29 23:55 NE 6 10.00 Overcast FEW055 OVC095 44.6 37.4 76% 42 30.05 0.0
29 23:35 NE 6 10.00 Overcast FEW075 BKN095 OVC110 44.6 37.4 76% 42 30.04 0.0
29 23:15 N 8 10.00 Mostly Cloudy SCT075 BKN090 42.8 37.4 81% 39 30.05 0.0
29 22:55 Calm 10.00 Partly Cloudy SCT090 44.6 37.4 76% 30.04 0.0
29 22:35 Calm 10.00 A Few Clouds FEW075 FEW085 46.4 39.2 76% 30.04 0.0
29 22:15 Calm 10.00 Mostly Cloudy FEW070 BKN090 48.2 37.4 66% 30.03 0.0
29 21:55 Calm 10.00 Overcast SCT070 OVC090 48.2 39.2 71% 30.03 0.0
29 21:35 Calm 10.00 Mostly Cloudy BKN085 50 35.6 58% 30.03 0.0
29 21:15 Calm 10.00 Mostly Cloudy BKN080 48.2 37.4 66% 30.02 0.0
29 20:55 Calm 10.00 Overcast OVC085 50 35.6 58% 30.02 0.0
29 20:35 Calm 10.00 Overcast OVC085 50 37.4 62% 30.02 0.0
Date Time (cdt) Wind (mph) Vis. (mi.) Weather Sky Cond. Air Dwpt Max. Min. Relative Humidity Wind Chill (°F) Heat Index (°F) altimeter (in) sea level (mb) 1 hr 3 hr 6 hr
6 hour
Temperature (ºF) Pressure Precipitation (in)